Sun City, CA (92584)

4:43 PM PDT on August 29, 2015 (GMT -0700)
Bradley/LaPidera | | Change Station
CLOSE
Current Station
Personal Weather Station
Location: Menifee, CA
Elevation: 1447 ft
Nearby Weather Stations

Elev 1447 ft 33.68 °N, 117.19 °W | Updated 3 seconds ago

Clear
Clear
100.9 °F
Feels Like 96 °F
N
2.5
Wind Variable Wind from NE
Gusts 4.9 mph

Today
High -- | Low -- °F
--% Chance of Precip.
Yesterday
High -- | Low -- °F
Precip. -- in
6:20 AM 7:18 PM
Full, 100% visible
Pressure 29.86 in
Visibility 10.0 miles
Clouds Clear
Heat Index 96 °F
Dew Point 39 °F
Humidity 12%
Rainfall 0.00 in
Snow Depth Not available.
UV 2.0 out of 12
Pollen 5.50 out of 12
Air Quality Not available.
Flu Activity Not available.
METAR KF70 292335Z AUTO 21009G14KT 180V240 10SM CLR 36/12 A2986 RMK AO1
Pressure 29.86 in
Visibility 10.0 miles
Clouds Clear
Heat Index 96 °F
Dew Point 39 °F
Humidity 12%
Rainfall 0.00 in
Snow Depth Not available.
UV 2.0 out of 12
Pollen 5.50 out of 12
Air Quality Not available.
Flu Activity Not available.
METAR KF70 292335Z AUTO 21009G14KT 180V240 10SM CLR 36/12 A2986 RMK AO1

10-Day Weather Forecast

×

Almanac

Astronomy

Aug. 29, 2015 Rise Set
Actual Time
Civil Twilight
Nautical Twilight
Astronomical Twilight
Moon
Length of Visible Light
Length of Day
Tomorrow will be .
, % of the Moon is Illuminated

Today's Extremes

State Highs State Lows

Community

WunderPhotos

Upload Photos

1,850,784 photos uploaded!

WunderBlogs® & News

Nearby

Air Quality

  Air Quality AQ Index Pollutant
Not available.

Snow Depth

Station Depth Elevation

Earthquake Activity

City Distance Mag. Time & Date
Minimum magnitude displayed is 2.5.

Coastal Water Temperatures

Place Temperature

Stations

Nearby Weather Stations

Station Location Temp. Windchill Dew Point Humidity Wind Precip. Elev Updated Type